createdAt,value
2023-12-29T00:00:38.050Z,94986.00
2023-12-29T00:01:38.105Z,94984.00
2023-12-29T00:02:38.036Z,94983.00
2023-12-29T00:03:38.087Z,94984.00
2023-12-29T00:04:38.005Z,94984.00
2023-12-29T00:05:38.004Z,94986.00
2023-12-29T00:06:46.152Z,94984.00
2023-12-29T00:07:39.076Z,94983.00
2023-12-29T00:08:38.008Z,94983.00
2023-12-29T00:09:38.022Z,94978.00
2023-12-29T00:10:38.010Z,94977.00
2023-12-29T00:11:38.003Z,94976.00
2023-12-29T00:12:38.027Z,94972.00
2023-12-29T00:13:37.990Z,94971.00
2023-12-29T00:14:38.017Z,94970.00
2023-12-29T00:15:38.045Z,94968.00
2023-12-29T00:16:38.033Z,94971.00
2023-12-29T00:17:38.083Z,94972.00
2023-12-29T00:18:38.100Z,94973.00
2023-12-29T00:19:38.107Z,94971.00
2023-12-29T00:20:41.644Z,94971.00
2023-12-29T00:21:38.025Z,94973.00
2023-12-29T00:22:38.032Z,94973.00
2023-12-29T00:23:38.030Z,94973.00
2023-12-29T00:24:38.036Z,94972.00
2023-12-29T00:25:38.072Z,94972.00
2023-12-29T00:26:38.036Z,94972.00
2023-12-29T00:27:38.200Z,94977.00
2023-12-29T00:28:38.040Z,94975.00
2023-12-29T00:29:38.036Z,94974.00
2023-12-29T00:30:48.076Z,94972.00
2023-12-29T00:31:39.126Z,94971.00
2023-12-29T00:32:38.064Z,94968.00
2023-12-29T00:33:38.166Z,94963.00
2023-12-29T00:34:38.080Z,94963.00
2023-12-29T00:35:38.054Z,94963.00
2023-12-29T00:36:38.086Z,94965.00
2023-12-29T00:37:38.057Z,94967.00
2023-12-29T00:38:38.087Z,94970.00
2023-12-29T00:39:38.053Z,94973.00
2023-12-29T00:40:38.064Z,94973.00
2023-12-29T00:41:38.211Z,94972.00
2023-12-29T00:42:38.197Z,94973.00
2023-12-29T00:43:38.060Z,94973.00
2023-12-29T00:44:38.078Z,94974.00
2023-12-29T00:45:38.126Z,94975.00
2023-12-29T00:46:38.100Z,94976.00
2023-12-29T00:47:38.190Z,94974.00
2023-12-29T00:48:38.322Z,94975.00
2023-12-29T00:49:38.260Z,94971.00
2023-12-29T00:50:38.225Z,94969.00
2023-12-29T00:51:38.295Z,94970.00
2023-12-29T00:52:38.304Z,94969.00
2023-12-29T00:53:38.327Z,94969.00
2023-12-29T00:54:38.420Z,94968.00
2023-12-29T00:55:38.391Z,94969.00
2023-12-29T00:56:38.434Z,94968.00
2023-12-29T00:57:38.498Z,94969.00
2023-12-29T00:58:38.503Z,94968.00
2023-12-29T00:59:38.535Z,94970.00
2023-12-29T01:00:38.690Z,94966.00
2023-12-29T01:01:38.745Z,94963.00
2023-12-29T01:02:38.651Z,94962.00
2023-12-29T01:03:38.753Z,94966.00
2023-12-29T01:04:38.889Z,94971.00
2023-12-29T01:05:38.822Z,94976.00
2023-12-29T01:06:38.815Z,94979.00
2023-12-29T01:07:38.861Z,94979.00
2023-12-29T01:08:38.871Z,94982.00
2023-12-29T01:09:39.000Z,94983.00
2023-12-29T01:10:38.960Z,94986.00
2023-12-29T01:11:38.998Z,94988.00
2023-12-29T01:12:39.085Z,94993.00
2023-12-29T01:13:39.105Z,94995.00
2023-12-29T01:14:39.140Z,94996.00
2023-12-29T01:15:39.195Z,94998.00
2023-12-29T01:16:39.238Z,94995.00
2023-12-29T01:17:39.335Z,94995.00
2023-12-29T01:18:39.433Z,94994.00
2023-12-29T01:19:39.426Z,94993.00
2023-12-29T01:20:39.387Z,94995.00
2023-12-29T01:21:39.459Z,94998.00
2023-12-29T01:22:39.497Z,94996.00
2023-12-29T01:23:39.499Z,94997.00
2023-12-29T01:24:45.559Z,94997.00
2023-12-29T01:25:40.564Z,95000.00
2023-12-29T01:26:39.751Z,95003.00
2023-12-29T01:27:39.575Z,95006.00
2023-12-29T01:28:39.865Z,95006.00
2023-12-29T01:29:41.034Z,95006.00
2023-12-29T01:30:39.712Z,95006.00
2023-12-29T01:31:39.581Z,95006.00
2023-12-29T01:32:39.612Z,95006.00
2023-12-29T01:33:39.638Z,95007.00
2023-12-29T01:34:39.765Z,95007.00
2023-12-29T01:35:39.550Z,95007.00
2023-12-29T01:36:39.570Z,95006.00
2023-12-29T01:37:39.582Z,95006.00
2023-12-29T01:38:39.617Z,95004.00
2023-12-29T01:39:39.716Z,95004.00
2023-12-29T01:40:39.776Z,95002.00
2023-12-29T01:41:39.748Z,95004.00
2023-12-29T01:42:39.860Z,94999.00
2023-12-29T01:43:39.802Z,95001.00
2023-12-29T01:44:39.925Z,94997.00
2023-12-29T01:45:48.915Z,94998.00
2023-12-29T01:46:40.905Z,94997.00
2023-12-29T01:47:39.905Z,94997.00
2023-12-29T01:48:40.011Z,94992.00
2023-12-29T01:49:39.996Z,94988.00
2023-12-29T01:50:39.894Z,94987.00
2023-12-29T01:51:39.925Z,94985.00
2023-12-29T01:52:39.897Z,94989.00
2023-12-29T01:53:45.684Z,94987.00
2023-12-29T01:54:40.907Z,94982.00
2023-12-29T01:55:39.895Z,94979.00
2023-12-29T01:56:39.910Z,94976.00
2023-12-29T01:57:39.978Z,94972.00
2023-12-29T01:58:39.908Z,94971.00
2023-12-29T01:59:39.918Z,94972.00
2023-12-29T02:00:39.956Z,94972.00
2023-12-29T02:01:39.978Z,94968.00
2023-12-29T02:02:39.920Z,94970.00
2023-12-29T02:03:40.016Z,94969.00
2023-12-29T02:04:39.991Z,94972.00
2023-12-29T02:05:39.984Z,94974.00
2023-12-29T02:06:39.989Z,94979.00
2023-12-29T02:07:39.971Z,94981.00
2023-12-29T02:08:40.071Z,94982.00
2023-12-29T02:09:40.129Z,94985.00
2023-12-29T02:10:40.084Z,94984.00
2023-12-29T02:11:40.134Z,94986.00
2023-12-29T02:12:40.200Z,94984.00
2023-12-29T02:13:40.223Z,94984.00
2023-12-29T02:14:40.346Z,94981.00
2023-12-29T02:15:40.345Z,94979.00
2023-12-29T02:16:40.362Z,94978.00
2023-12-29T02:17:40.468Z,94982.00
2023-12-29T02:18:40.501Z,94984.00
2023-12-29T02:19:41.222Z,94984.00
2023-12-29T02:20:40.557Z,94985.00
2023-12-29T02:21:40.666Z,94986.00
2023-12-29T02:22:40.659Z,94987.00
2023-12-29T02:23:40.753Z,94987.00
2023-12-29T02:24:41.045Z,94986.00
2023-12-29T02:25:40.805Z,94988.00
2023-12-29T02:26:40.868Z,94987.00
2023-12-29T02:27:40.931Z,94987.00
2023-12-29T02:28:41.109Z,94988.00
2023-12-29T02:29:41.041Z,94989.00
2023-12-29T02:30:41.129Z,94992.00
2023-12-29T02:31:41.161Z,94990.00
2023-12-29T02:32:41.282Z,94986.00
2023-12-29T02:33:41.547Z,94984.00
2023-12-29T02:34:41.408Z,94988.00
2023-12-29T02:35:41.355Z,94989.00
2023-12-29T02:36:41.421Z,94989.00
2023-12-29T02:37:41.430Z,94990.00
2023-12-29T02:38:41.457Z,94988.00
2023-12-29T02:39:41.542Z,94988.00
2023-12-29T02:40:41.568Z,94993.00
2023-12-29T02:41:41.607Z,94997.00
2023-12-29T02:42:41.733Z,94995.00
2023-12-29T02:43:41.664Z,94992.00
2023-12-29T02:44:41.712Z,94989.00
2023-12-29T02:45:41.785Z,94988.00
2023-12-29T02:46:41.804Z,94988.00
2023-12-29T02:47:41.916Z,94987.00
2023-12-29T02:48:42.009Z,94988.00
2023-12-29T02:49:41.997Z,94988.00
2023-12-29T02:50:41.997Z,94990.00
2023-12-29T02:51:42.101Z,94988.00
2023-12-29T02:52:42.135Z,94988.00
2023-12-29T02:53:42.143Z,94987.00
2023-12-29T02:54:42.178Z,94988.00
2023-12-29T02:55:42.209Z,94988.00
2023-12-29T02:56:42.254Z,94987.00
2023-12-29T02:57:42.339Z,94982.00
2023-12-29T02:58:42.329Z,94979.00
2023-12-29T02:59:42.389Z,94978.00
2023-12-29T03:00:42.530Z,94978.00
2023-12-29T03:01:42.502Z,94977.00
2023-12-29T03:02:42.495Z,94970.00
2023-12-29T03:03:42.620Z,94964.00
2023-12-29T03:04:42.564Z,94959.00
2023-12-29T03:05:42.630Z,94958.00
2023-12-29T03:06:42.666Z,94960.00
2023-12-29T03:07:42.708Z,94958.00
2023-12-29T03:08:42.736Z,94962.00
2023-12-29T03:09:42.793Z,94963.00
2023-12-29T03:10:42.824Z,94965.00
2023-12-29T03:11:42.842Z,94965.00
2023-12-29T03:12:42.980Z,94963.00
2023-12-29T03:13:42.902Z,94953.00
2023-12-29T03:14:42.955Z,94951.00
2023-12-29T03:15:43.027Z,94953.00
2023-12-29T03:16:43.056Z,94957.00
2023-12-29T03:17:43.125Z,94958.00
2023-12-29T03:18:43.365Z,94955.00
2023-12-29T03:19:43.262Z,94951.00
2023-12-29T03:20:43.229Z,94951.00
2023-12-29T03:21:43.304Z,94949.00
2023-12-29T03:22:43.334Z,94947.00
2023-12-29T03:23:43.384Z,94945.00
2023-12-29T03:24:43.496Z,94948.00
2023-12-29T03:25:43.501Z,94950.00
2023-12-29T03:26:43.557Z,94950.00
2023-12-29T03:27:43.677Z,94947.00
2023-12-29T03:28:43.626Z,94945.00
2023-12-29T03:29:43.759Z,94945.00
2023-12-29T03:30:43.778Z,94945.00
2023-12-29T03:31:43.857Z,94945.00
2023-12-29T03:32:43.840Z,94942.00
2023-12-29T03:33:43.948Z,94937.00
2023-12-29T03:34:44.002Z,94939.00
2023-12-29T03:35:44.048Z,94937.00
2023-12-29T03:36:44.111Z,94941.00
2023-12-29T03:37:44.066Z,94943.00
2023-12-29T03:38:44.117Z,94941.00
2023-12-29T03:39:44.192Z,94938.00
2023-12-29T03:40:44.219Z,94938.00
2023-12-29T03:41:44.260Z,94937.00
2023-12-29T03:42:44.373Z,94936.00
2023-12-29T03:43:44.475Z,94936.00
2023-12-29T03:44:44.436Z,94931.00
2023-12-29T03:45:44.541Z,94928.00
2023-12-29T03:46:44.491Z,94926.00
2023-12-29T03:47:44.614Z,94920.00
2023-12-29T03:48:44.744Z,94917.00
2023-12-29T03:49:44.695Z,94914.00
2023-12-29T03:50:44.702Z,94912.00
2023-12-29T03:51:44.763Z,94915.00
2023-12-29T03:52:44.810Z,94917.00
2023-12-29T03:53:44.846Z,94916.00
2023-12-29T03:54:44.904Z,94916.00
2023-12-29T03:55:44.891Z,94917.00
2023-12-29T03:56:44.941Z,94923.00
2023-12-29T03:57:45.028Z,94926.00
2023-12-29T03:58:45.020Z,94929.00
2023-12-29T03:59:45.070Z,94934.00
2023-12-29T04:00:45.204Z,94933.00
2023-12-29T04:01:45.275Z,94932.00
2023-12-29T04:02:45.273Z,94928.00
2023-12-29T04:03:45.547Z,94926.00
2023-12-29T04:04:45.506Z,94927.00
2023-12-29T04:05:45.389Z,94928.00
2023-12-29T04:06:45.484Z,94934.00
2023-12-29T04:07:45.509Z,94938.00
2023-12-29T04:08:45.593Z,94942.00
2023-12-29T04:09:45.638Z,94943.00
2023-12-29T04:10:45.683Z,94943.00
2023-12-29T04:11:45.690Z,94940.00
2023-12-29T04:12:45.824Z,94937.00
2023-12-29T04:13:45.781Z,94940.00
2023-12-29T04:14:45.827Z,94937.00
2023-12-29T04:15:45.934Z,94934.00
2023-12-29T04:16:45.936Z,94931.00
2023-12-29T04:17:46.057Z,94926.00
2023-12-29T04:18:46.128Z,94925.00
2023-12-29T04:19:46.162Z,94923.00
2023-12-29T04:20:46.115Z,94922.00
2023-12-29T04:21:46.211Z,94928.00
2023-12-29T04:22:46.301Z,94930.00
2023-12-29T04:23:46.254Z,94929.00
2023-12-29T04:24:46.338Z,94928.00
2023-12-29T04:25:46.352Z,94925.00
2023-12-29T04:26:46.421Z,94922.00
2023-12-29T04:27:46.546Z,94919.00
2023-12-29T04:28:46.492Z,94917.00
2023-12-29T04:29:46.546Z,94913.00
2023-12-29T04:30:46.756Z,94911.00
2023-12-29T04:31:46.684Z,94914.00
2023-12-29T04:32:46.759Z,94920.00
2023-12-29T04:33:46.850Z,94923.00
2023-12-29T04:34:46.908Z,94926.00
2023-12-29T04:35:46.874Z,94928.00
2023-12-29T04:36:46.929Z,94928.00
2023-12-29T04:37:46.974Z,94929.00
2023-12-29T04:38:47.013Z,94928.00
2023-12-29T04:39:47.107Z,94928.00
2023-12-29T04:40:47.135Z,94931.00
2023-12-29T04:41:47.173Z,94931.00
2023-12-29T04:42:47.259Z,94930.00
2023-12-29T04:43:47.279Z,94927.00
2023-12-29T04:44:47.331Z,94926.00
2023-12-29T04:45:47.394Z,94922.00
2023-12-29T04:46:47.431Z,94920.00
2023-12-29T04:47:47.533Z,94915.00
2023-12-29T04:48:47.619Z,94913.00
2023-12-29T04:49:47.713Z,94912.00
2023-12-29T04:50:47.629Z,94904.00
2023-12-29T04:51:47.758Z,94899.00
2023-12-29T04:52:47.753Z,94898.00
2023-12-29T04:53:47.805Z,94895.00
2023-12-29T04:54:49.164Z,94896.00
2023-12-29T04:55:47.899Z,94898.00
2023-12-29T04:56:47.947Z,94895.00
2023-12-29T04:57:48.088Z,94892.00
2023-12-29T04:58:55.520Z,94890.00
2023-12-29T04:59:55.490Z,94889.00
2023-12-29T05:00:55.502Z,94890.00
2023-12-29T05:01:55.622Z,94887.00
2023-12-29T05:02:55.511Z,94887.00
2023-12-29T05:03:55.602Z,94887.00
2023-12-29T05:04:55.707Z,94887.00
2023-12-29T05:05:55.506Z,94887.00
2023-12-29T05:06:55.534Z,94883.00
2023-12-29T05:07:55.535Z,94882.00
2023-12-29T05:08:55.500Z,94884.00
2023-12-29T05:09:55.539Z,94887.00
2023-12-29T05:10:55.496Z,94886.00
2023-12-29T05:11:55.508Z,94881.00
2023-12-29T05:12:55.542Z,94877.00
2023-12-29T05:13:55.500Z,94880.00
2023-12-29T05:14:55.505Z,94882.00
2023-12-29T05:15:55.551Z,94885.00
2023-12-29T05:16:55.502Z,94887.00
2023-12-29T05:17:55.613Z,94883.00
2023-12-29T05:18:55.632Z,94884.00
2023-12-29T05:19:55.685Z,94883.00
2023-12-29T05:20:55.513Z,94884.00
2023-12-29T05:21:55.593Z,94880.00
2023-12-29T05:22:55.559Z,94871.00
2023-12-29T05:23:55.531Z,94869.00
2023-12-29T05:24:55.600Z,94871.00
2023-12-29T05:25:55.541Z,94879.00
2023-12-29T05:26:55.528Z,94885.00
2023-12-29T05:27:55.663Z,94887.00
2023-12-29T05:28:55.689Z,94882.00
2023-12-29T05:29:55.689Z,94878.00
2023-12-29T05:30:55.798Z,94876.00
2023-12-29T05:31:55.831Z,94886.00
2023-12-29T05:32:55.991Z,94895.00
2023-12-29T05:33:55.932Z,94897.00
2023-12-29T05:34:55.968Z,94890.00
2023-12-29T05:35:55.967Z,94881.00
2023-12-29T05:36:56.059Z,94876.00
2023-12-29T05:37:56.092Z,94874.00
2023-12-29T05:38:56.115Z,94881.00
2023-12-29T05:39:56.210Z,94884.00
2023-12-29T05:40:56.209Z,94887.00
2023-12-29T05:41:56.257Z,94886.00
2023-12-29T05:42:56.433Z,94881.00
2023-12-29T05:43:56.378Z,94876.00
2023-12-29T05:44:56.422Z,94875.00
2023-12-29T05:45:56.563Z,94878.00
2023-12-29T05:46:56.534Z,94887.00
2023-12-29T05:47:56.626Z,94899.00
2023-12-29T05:48:56.709Z,94902.00
2023-12-29T05:49:56.780Z,94904.00
2023-12-29T05:50:56.732Z,94900.00
2023-12-29T05:51:56.804Z,94896.00
2023-12-29T05:52:56.857Z,94895.00
2023-12-29T05:53:56.894Z,94894.00
2023-12-29T05:54:56.971Z,94898.00
2023-12-29T05:55:57.011Z,94899.00
2023-12-29T05:56:57.048Z,94902.00
2023-12-29T05:57:57.467Z,94903.00
2023-12-29T05:58:57.138Z,94908.00
2023-12-29T05:59:57.187Z,94911.00
2023-12-29T06:00:57.256Z,94915.00
2023-12-29T06:01:57.456Z,94910.00
2023-12-29T06:02:57.386Z,94904.00
2023-12-29T06:03:57.435Z,94899.00
2023-12-29T06:04:57.472Z,94895.00
2023-12-29T06:05:57.525Z,94889.00
2023-12-29T06:06:57.584Z,94891.00
2023-12-29T06:07:57.992Z,94890.00
2023-12-29T06:08:57.678Z,94894.00
2023-12-29T06:09:57.752Z,94892.00
2023-12-29T06:10:57.796Z,94889.00
2023-12-29T06:11:57.846Z,94891.00
2023-12-29T06:12:57.906Z,94895.00
2023-12-29T06:13:57.940Z,94900.00
2023-12-29T06:14:58.010Z,94905.00
2023-12-29T06:15:58.081Z,94906.00
2023-12-29T06:16:58.099Z,94903.00
2023-12-29T06:17:58.628Z,94897.00
2023-12-29T06:18:58.324Z,94894.00
2023-12-29T06:19:58.289Z,94893.00
2023-12-29T06:20:58.341Z,94893.00
2023-12-29T06:21:58.428Z,94889.00
2023-12-29T06:22:58.686Z,94882.00
2023-12-29T06:23:58.496Z,94877.00
2023-12-29T06:24:58.561Z,94872.00
2023-12-29T06:25:58.613Z,94872.00
2023-12-29T06:26:58.683Z,94874.00
2023-12-29T06:27:59.064Z,94877.00
2023-12-29T06:28:58.803Z,94881.00
2023-12-29T06:29:58.860Z,94882.00
2023-12-29T06:30:58.963Z,94884.00
2023-12-29T06:31:58.966Z,94882.00
2023-12-29T06:32:59.139Z,94881.00
2023-12-29T06:33:59.124Z,94881.00
2023-12-29T06:34:59.120Z,94876.00
2023-12-29T06:35:59.165Z,94870.00
2023-12-29T06:36:59.241Z,94871.00
2023-12-29T06:37:59.547Z,94876.00
2023-12-29T06:38:59.330Z,94877.00
2023-12-29T06:39:59.493Z,94880.00
2023-12-29T06:40:59.433Z,94882.00
2023-12-29T06:41:59.504Z,94883.00
2023-12-29T06:42:59.594Z,94884.00
2023-12-29T06:43:59.577Z,94884.00
2023-12-29T06:44:59.633Z,94884.00
2023-12-29T06:45:59.711Z,94883.00
2023-12-29T06:46:59.758Z,94884.00
2023-12-29T06:48:00.062Z,94882.00
2023-12-29T06:48:59.963Z,94884.00
2023-12-29T06:50:00.026Z,94882.00
2023-12-29T06:50:59.988Z,94879.00
2023-12-29T06:52:00.065Z,94875.00
2023-12-29T06:53:00.073Z,94875.00
2023-12-29T06:54:00.127Z,94877.00
2023-12-29T06:55:00.272Z,94880.00
2023-12-29T06:56:00.210Z,94884.00
2023-12-29T06:57:00.238Z,94886.00
2023-12-29T06:58:00.598Z,94886.00
2023-12-29T06:59:00.356Z,94888.00
2023-12-29T07:00:00.390Z,94890.00
2023-12-29T07:01:00.562Z,94889.00
2023-12-29T07:02:00.554Z,94888.00
2023-12-29T07:03:00.594Z,94888.00
2023-12-29T07:04:00.652Z,94887.00
2023-12-29T07:05:00.823Z,94886.00
2023-12-29T07:06:00.736Z,94885.00
2023-12-29T07:07:00.923Z,94883.00
2023-12-29T07:08:01.157Z,94884.00
2023-12-29T07:09:00.909Z,94887.00
2023-12-29T07:10:00.954Z,94884.00
2023-12-29T07:11:00.997Z,94876.00
2023-12-29T07:12:01.063Z,94874.00
2023-12-29T07:13:01.216Z,94874.00
2023-12-29T07:14:01.158Z,94874.00
2023-12-29T07:15:01.209Z,94874.00
2023-12-29T07:16:01.301Z,94878.00
2023-12-29T07:17:01.315Z,94874.00
2023-12-29T07:18:01.788Z,94875.00
2023-12-29T07:19:01.632Z,94873.00
2023-12-29T07:20:01.484Z,94874.00
2023-12-29T07:21:01.533Z,94869.00
2023-12-29T07:22:01.607Z,94872.00
2023-12-29T07:23:01.668Z,94875.00
2023-12-29T07:24:01.697Z,94882.00
2023-12-29T07:25:01.859Z,94885.00
2023-12-29T07:26:01.852Z,94882.00
2023-12-29T07:27:01.881Z,94878.00
2023-12-29T07:28:02.288Z,94874.00
2023-12-29T07:29:01.978Z,94875.00
2023-12-29T07:30:02.063Z,94883.00
2023-12-29T07:31:02.193Z,94895.00
2023-12-29T07:32:02.126Z,94894.00
2023-12-29T07:33:02.237Z,94892.00
2023-12-29T07:34:02.343Z,94891.00
2023-12-29T07:35:02.396Z,94893.00
2023-12-29T07:36:02.363Z,94897.00
2023-12-29T07:37:02.462Z,94899.00
2023-12-29T07:38:02.943Z,94901.00
2023-12-29T07:39:02.520Z,94903.00
2023-12-29T07:40:02.646Z,94904.00
2023-12-29T07:41:02.608Z,94905.00
2023-12-29T07:42:04.103Z,94907.00
2023-12-29T07:43:02.739Z,94909.00
2023-12-29T07:44:02.827Z,94910.00
2023-12-29T07:45:02.827Z,94908.00
2023-12-29T07:46:02.891Z,94903.00
2023-12-29T07:47:02.925Z,94899.00
2023-12-29T07:48:03.944Z,94897.00
2023-12-29T07:49:03.104Z,94896.00
2023-12-29T07:50:03.188Z,94897.00
2023-12-29T07:51:03.132Z,94897.00
2023-12-29T07:52:03.234Z,94896.00
2023-12-29T07:53:03.242Z,94895.00
2023-12-29T07:54:03.295Z,94897.00
2023-12-29T07:55:03.380Z,94901.00
2023-12-29T07:56:03.378Z,94908.00
2023-12-29T07:57:03.423Z,94911.00
2023-12-29T07:58:03.996Z,94917.00
2023-12-29T07:59:03.544Z,94921.00
2023-12-29T08:00:03.588Z,94927.00
2023-12-29T08:01:03.753Z,94932.00
2023-12-29T08:02:03.689Z,94936.00
2023-12-29T08:03:03.812Z,94936.00
2023-12-29T08:04:03.941Z,94936.00
2023-12-29T08:05:03.928Z,94933.00
2023-12-29T08:06:04.019Z,94935.00
2023-12-29T08:07:04.007Z,94936.00
2023-12-29T08:08:04.039Z,94936.00
2023-12-29T08:09:04.103Z,94935.00
2023-12-29T08:10:04.186Z,94931.00
2023-12-29T08:11:04.202Z,94932.00
2023-12-29T08:12:04.230Z,94933.00
2023-12-29T08:13:04.274Z,94937.00
2023-12-29T08:14:04.319Z,94940.00
2023-12-29T08:15:04.355Z,94943.00
2023-12-29T08:16:04.494Z,94942.00
2023-12-29T08:17:04.485Z,94944.00
2023-12-29T08:18:04.789Z,94942.00
2023-12-29T08:19:04.635Z,94939.00
2023-12-29T08:20:04.587Z,94934.00
2023-12-29T08:21:04.640Z,94933.00
2023-12-29T08:22:04.815Z,94929.00
2023-12-29T08:23:04.773Z,94925.00
2023-12-29T08:24:04.810Z,94920.00
2023-12-29T08:25:04.908Z,94918.00
2023-12-29T08:26:04.937Z,94914.00
2023-12-29T08:27:04.968Z,94915.00
2023-12-29T08:28:05.072Z,94918.00
2023-12-29T08:29:05.065Z,94921.00
2023-12-29T08:30:05.297Z,94921.00
2023-12-29T08:31:05.307Z,94920.00
2023-12-29T08:32:05.222Z,94915.00
2023-12-29T08:33:05.362Z,94913.00
2023-12-29T08:34:05.389Z,94911.00
2023-12-29T08:35:05.475Z,94911.00
2023-12-29T08:36:05.476Z,94910.00
2023-12-29T08:37:05.548Z,94910.00
2023-12-29T08:38:05.530Z,94907.00
2023-12-29T08:39:05.561Z,94908.00
2023-12-29T08:40:05.689Z,94907.00
2023-12-29T08:41:05.696Z,94908.00
2023-12-29T08:42:05.761Z,94908.00
2023-12-29T08:43:05.892Z,94911.00
2023-12-29T08:44:05.831Z,94916.00
2023-12-29T08:45:07.138Z,94918.00
2023-12-29T08:46:05.951Z,94920.00
2023-12-29T08:47:05.973Z,94925.00
2023-12-29T08:48:06.610Z,94928.00
2023-12-29T08:49:06.142Z,94930.00
2023-12-29T08:50:06.108Z,94928.00
2023-12-29T08:51:06.182Z,94926.00
2023-12-29T08:52:06.342Z,94924.00
2023-12-29T08:53:06.249Z,94927.00
2023-12-29T08:54:06.294Z,94932.00
2023-12-29T08:55:06.365Z,94934.00
2023-12-29T08:56:06.401Z,94934.00
2023-12-29T08:57:06.449Z,94937.00
2023-12-29T08:58:06.549Z,94938.00
2023-12-29T08:59:06.547Z,94939.00
2023-12-29T09:00:06.615Z,94936.00
2023-12-29T09:01:06.752Z,94937.00
2023-12-29T09:02:06.710Z,94937.00
2023-12-29T09:03:06.763Z,94940.00
2023-12-29T09:04:06.856Z,94942.00
2023-12-29T09:05:06.993Z,94944.00
2023-12-29T09:06:06.963Z,94940.00
2023-12-29T09:07:07.100Z,94940.00
2023-12-29T09:08:07.027Z,94938.00
2023-12-29T09:09:07.092Z,94939.00
2023-12-29T09:10:07.169Z,94940.00
2023-12-29T09:11:07.190Z,94944.00
2023-12-29T09:12:07.242Z,94949.00
2023-12-29T09:13:07.354Z,94952.00
2023-12-29T09:14:07.364Z,94949.00
2023-12-29T09:15:07.362Z,94945.00
2023-12-29T09:16:07.380Z,94942.00
2023-12-29T09:17:07.465Z,94939.00
2023-12-29T09:18:07.774Z,94938.00
2023-12-29T09:19:22.198Z,94942.00
2023-12-29T09:20:10.952Z,94946.00
2023-12-29T09:21:07.605Z,94947.00
2023-12-29T09:22:07.616Z,94946.00
2023-12-29T09:23:07.625Z,94944.00
2023-12-29T09:24:07.573Z,94943.00
2023-12-29T09:25:07.676Z,94944.00
2023-12-29T09:26:07.638Z,94946.00
2023-12-29T09:27:08.201Z,94944.00
2023-12-29T09:28:07.600Z,94945.00
2023-12-29T09:29:07.572Z,94944.00
2023-12-29T09:30:07.648Z,94943.00
2023-12-29T09:31:07.684Z,94940.00
2023-12-29T09:32:07.578Z,94940.00
2023-12-29T09:33:07.668Z,94937.00
2023-12-29T09:34:07.926Z,94940.00
2023-12-29T09:35:07.597Z,94939.00
2023-12-29T09:36:07.587Z,94939.00
2023-12-29T09:37:07.624Z,94941.00
2023-12-29T09:38:07.601Z,94941.00
2023-12-29T09:39:07.603Z,94940.00
2023-12-29T09:40:07.614Z,94937.00
2023-12-29T09:41:07.589Z,94936.00
2023-12-29T09:42:07.564Z,94936.00
2023-12-29T09:43:07.623Z,94938.00
2023-12-29T09:44:07.580Z,94939.00
2023-12-29T09:45:07.609Z,94939.00
2023-12-29T09:46:07.659Z,94939.00
2023-12-29T09:47:07.626Z,94941.00
2023-12-29T09:48:07.884Z,94941.00
2023-12-29T09:49:07.694Z,94936.00
2023-12-29T09:50:07.820Z,94931.00
2023-12-29T09:51:08.224Z,94929.00
2023-12-29T09:52:07.849Z,94927.00
2023-12-29T09:53:07.854Z,94926.00
2023-12-29T09:54:08.197Z,94924.00
2023-12-29T09:55:08.023Z,94923.00
2023-12-29T09:56:08.033Z,94925.00
2023-12-29T09:57:08.067Z,94925.00
2023-12-29T09:58:08.144Z,94924.00
2023-12-29T09:59:08.195Z,94922.00
2023-12-29T10:00:08.243Z,94918.00
2023-12-29T10:01:08.399Z,94916.00
2023-12-29T10:02:08.342Z,94913.00
2023-12-29T10:03:08.384Z,94915.00
2023-12-29T10:04:08.549Z,94914.00
2023-12-29T10:05:08.576Z,94914.00
2023-12-29T10:06:08.656Z,94913.00
2023-12-29T10:07:08.666Z,94913.00
2023-12-29T10:08:08.665Z,94907.00
2023-12-29T10:09:08.667Z,94907.00
2023-12-29T10:10:08.853Z,94904.00
2023-12-29T10:11:08.807Z,94905.00
2023-12-29T10:12:08.836Z,94905.00
2023-12-29T10:13:08.918Z,94906.00
2023-12-29T10:14:08.978Z,94900.00
2023-12-29T10:15:09.053Z,94896.00
2023-12-29T10:16:09.184Z,94893.00
2023-12-29T10:17:09.102Z,94888.00
2023-12-29T10:18:09.271Z,94891.00
2023-12-29T10:19:09.286Z,94891.00
2023-12-29T10:20:09.231Z,94892.00
2023-12-29T10:21:09.301Z,94892.00
2023-12-29T10:22:09.435Z,94889.00
2023-12-29T10:23:09.411Z,94887.00
2023-12-29T10:24:10.522Z,94883.00
2023-12-29T10:25:09.510Z,94883.00
2023-12-29T10:26:09.669Z,94882.00
2023-12-29T10:27:09.608Z,94881.00
2023-12-29T10:28:09.661Z,94877.00
2023-12-29T10:29:09.682Z,94878.00
2023-12-29T10:30:11.526Z,94872.00
2023-12-29T10:31:09.815Z,94870.00
2023-12-29T10:32:09.840Z,94870.00
2023-12-29T10:33:10.004Z,94869.00
2023-12-29T10:34:09.900Z,94866.00
2023-12-29T10:35:09.761Z,94865.00
2023-12-29T10:36:09.791Z,94864.00
2023-12-29T10:37:09.778Z,94863.00
2023-12-29T10:38:09.766Z,94864.00
2023-12-29T10:39:09.740Z,94860.00
2023-12-29T10:40:09.821Z,94856.00
2023-12-29T10:41:09.750Z,94855.00
2023-12-29T10:42:09.744Z,94853.00
2023-12-29T10:43:10.038Z,94852.00
2023-12-29T10:44:09.848Z,94847.00
2023-12-29T10:45:09.785Z,94848.00
2023-12-29T10:46:09.841Z,94843.00
2023-12-29T10:47:09.793Z,94840.00
2023-12-29T10:48:09.838Z,94838.00
2023-12-29T10:49:09.811Z,94837.00
2023-12-29T10:50:09.820Z,94836.00
2023-12-29T10:51:09.742Z,94835.00
2023-12-29T10:52:09.767Z,94833.00
2023-12-29T10:53:09.756Z,94834.00
2023-12-29T10:54:09.756Z,94833.00
2023-12-29T10:55:09.856Z,94832.00
2023-12-29T10:56:09.750Z,94829.00
2023-12-29T10:57:09.751Z,94824.00
2023-12-29T10:58:09.834Z,94820.00
2023-12-29T10:59:09.750Z,94816.00
2023-12-29T11:00:09.756Z,94813.00
2023-12-29T11:01:09.800Z,94809.00
2023-12-29T11:02:10.140Z,94807.00
2023-12-29T11:03:09.814Z,94807.00
2023-12-29T11:04:09.801Z,94809.00
2023-12-29T11:05:09.897Z,94810.00
2023-12-29T11:06:09.768Z,94810.00
2023-12-29T11:07:09.811Z,94812.00
2023-12-29T11:08:09.773Z,94808.00
2023-12-29T11:09:09.774Z,94807.00
2023-12-29T11:10:09.920Z,94804.00
2023-12-29T11:11:09.775Z,94801.00
2023-12-29T11:12:09.835Z,94800.00
2023-12-29T11:13:10.267Z,94797.00
2023-12-29T11:14:09.956Z,94797.00
2023-12-29T11:15:10.010Z,94797.00
2023-12-29T11:16:10.102Z,94798.00
2023-12-29T11:17:10.118Z,94797.00
2023-12-29T11:18:10.283Z,94794.00
2023-12-29T11:19:10.298Z,94791.00
2023-12-29T11:20:10.333Z,94788.00
2023-12-29T11:21:10.371Z,94787.00
2023-12-29T11:22:10.451Z,94788.00
2023-12-29T11:23:10.467Z,94788.00
2023-12-29T11:24:12.077Z,94788.00
2023-12-29T11:25:10.533Z,94782.00
2023-12-29T11:26:10.512Z,94780.00
2023-12-29T11:27:10.508Z,94780.00
2023-12-29T11:28:10.569Z,94782.00
2023-12-29T11:29:10.511Z,94781.00
2023-12-29T11:30:12.435Z,94783.00
2023-12-29T11:31:10.621Z,94782.00
2023-12-29T11:32:10.501Z,94782.00
2023-12-29T11:33:10.628Z,94778.00
2023-12-29T11:34:10.559Z,94777.00
2023-12-29T11:35:10.502Z,94772.00
2023-12-29T11:36:16.840Z,94769.00
2023-12-29T11:37:11.504Z,94769.00
2023-12-29T11:38:10.513Z,94770.00
2023-12-29T11:39:10.502Z,94770.00
2023-12-29T11:40:10.628Z,94770.00
2023-12-29T11:41:10.497Z,94768.00
2023-12-29T11:42:10.515Z,94763.00
2023-12-29T11:43:10.620Z,94762.00
2023-12-29T11:44:10.532Z,94760.00
2023-12-29T11:45:10.496Z,94759.00